createdAt,value
2019-01-09T00:00:47.877Z,6.60
2019-01-09T00:01:26.899Z,6.59
2019-01-09T00:02:26.847Z,6.54
2019-01-09T00:03:26.847Z,6.54
2019-01-09T00:04:26.831Z,6.46
2019-01-09T00:05:28.479Z,6.54
2019-01-09T00:06:47.815Z,6.51
2019-01-09T00:07:26.795Z,6.60
2019-01-09T00:08:26.787Z,6.49
2019-01-09T00:09:26.778Z,6.52
2019-01-09T00:10:26.769Z,6.56
2019-01-09T00:11:26.753Z,6.52
2019-01-09T00:12:47.751Z,6.57
2019-01-09T00:13:26.738Z,6.45
2019-01-09T00:14:26.721Z,6.49
2019-01-09T00:15:26.709Z,6.46
2019-01-09T00:16:26.700Z,6.42
2019-01-09T00:17:26.686Z,6.44
2019-01-09T00:18:47.690Z,6.44
2019-01-09T00:19:26.664Z,6.41
2019-01-09T00:20:26.656Z,6.36
2019-01-09T00:21:26.646Z,6.36
2019-01-09T00:22:26.639Z,6.38
2019-01-09T00:23:26.622Z,6.41
2019-01-09T00:24:47.618Z,6.31
2019-01-09T00:25:26.597Z,6.28
2019-01-09T00:26:26.588Z,6.26
2019-01-09T00:27:26.597Z,6.19
2019-01-09T00:28:26.567Z,6.16
2019-01-09T00:29:26.554Z,6.19
2019-01-09T00:30:47.547Z,6.09
2019-01-09T00:31:26.530Z,5.99
2019-01-09T00:32:26.520Z,6.02
2019-01-09T00:33:26.510Z,6.01
2019-01-09T00:34:26.493Z,6.09
2019-01-09T00:35:26.486Z,5.99
2019-01-09T00:36:47.480Z,6.02
2019-01-09T00:37:26.463Z,6.05
2019-01-09T00:38:26.452Z,6.04
2019-01-09T00:39:26.442Z,6.05
2019-01-09T00:40:26.433Z,6.01
2019-01-09T00:41:26.417Z,6.11
2019-01-09T00:42:47.410Z,5.99
2019-01-09T00:43:26.397Z,6.04
2019-01-09T00:44:26.390Z,6.02
2019-01-09T00:45:26.374Z,5.94
2019-01-09T00:46:26.362Z,5.98
2019-01-09T00:47:26.354Z,6.01
2019-01-09T00:48:47.347Z,5.99
2019-01-09T00:49:26.337Z,5.94
2019-01-09T00:50:26.327Z,6.01
2019-01-09T00:51:26.307Z,5.98
2019-01-09T00:52:26.297Z,5.99
2019-01-09T00:53:26.285Z,6.05
2019-01-09T00:54:47.275Z,6.04
2019-01-09T00:55:26.261Z,6.02
2019-01-09T00:56:26.252Z,6.08
2019-01-09T00:57:26.238Z,6.05
2019-01-09T00:58:26.230Z,6.08
2019-01-09T00:59:26.219Z,5.98
2019-01-09T01:00:47.214Z,6.08
2019-01-09T01:01:26.197Z,6.07
2019-01-09T01:02:26.186Z,6.07
2019-01-09T01:03:26.174Z,6.07
2019-01-09T01:04:26.160Z,6.17
2019-01-09T01:05:26.155Z,6.22
2019-01-09T01:06:47.145Z,6.16
2019-01-09T01:07:26.131Z,6.11
2019-01-09T01:08:26.121Z,6.20
2019-01-09T01:09:26.110Z,6.24
2019-01-09T01:10:26.100Z,6.16
2019-01-09T01:11:26.085Z,6.19
2019-01-09T01:12:47.081Z,6.16
2019-01-09T01:13:26.066Z,6.17
2019-01-09T01:14:26.051Z,6.16
2019-01-09T01:15:26.037Z,6.20
2019-01-09T01:16:26.031Z,6.26
2019-01-09T01:17:26.019Z,6.27
2019-01-09T01:18:47.011Z,6.30
2019-01-09T01:19:25.996Z,6.35
2019-01-09T01:20:25.986Z,6.28
2019-01-09T01:21:25.975Z,6.27
2019-01-09T01:22:25.958Z,6.35
2019-01-09T01:23:25.951Z,6.27
2019-01-09T01:24:46.945Z,6.20
2019-01-09T01:25:25.927Z,6.19
2019-01-09T01:26:25.916Z,6.19
2019-01-09T01:27:25.907Z,6.27
2019-01-09T01:28:26.461Z,6.20
2019-01-09T01:29:25.881Z,6.26
2019-01-09T01:30:46.878Z,6.28
2019-01-09T01:31:25.865Z,6.22
2019-01-09T01:32:25.853Z,6.30
2019-01-09T01:33:25.844Z,6.22
2019-01-09T01:34:25.830Z,6.31
2019-01-09T01:35:25.819Z,6.28
2019-01-09T01:36:46.815Z,6.19
2019-01-09T01:37:25.798Z,6.24
2019-01-09T01:38:25.785Z,6.28
2019-01-09T01:39:25.774Z,6.12
2019-01-09T01:40:25.766Z,6.17
2019-01-09T01:41:25.756Z,6.17
2019-01-09T01:42:46.743Z,6.19
2019-01-09T01:43:25.731Z,6.09
2019-01-09T01:44:25.725Z,6.09
2019-01-09T01:45:25.708Z,6.05
2019-01-09T01:46:25.719Z,6.02
2019-01-09T01:47:25.688Z,6.11
2019-01-09T01:48:46.683Z,5.99
2019-01-09T01:49:25.661Z,6.05
2019-01-09T01:50:25.655Z,6.05
2019-01-09T01:51:25.644Z,6.05
2019-01-09T01:52:25.638Z,6.16
2019-01-09T01:53:25.624Z,6.07
2019-01-09T01:54:46.617Z,6.08
2019-01-09T01:55:25.596Z,5.98
2019-01-09T01:56:25.592Z,6.04
2019-01-09T01:57:25.579Z,5.99
2019-01-09T01:58:25.572Z,6.01
2019-01-09T01:59:25.563Z,6.08
2019-01-09T02:00:46.554Z,5.99
2019-01-09T02:01:25.538Z,6.04
2019-01-09T02:02:25.524Z,6.08
2019-01-09T02:03:25.516Z,5.99
2019-01-09T02:04:25.514Z,5.99
2019-01-09T02:05:25.495Z,6.20
2019-01-09T02:06:46.556Z,6.28
2019-01-09T02:07:25.474Z,6.22
2019-01-09T02:08:25.466Z,6.20
2019-01-09T02:09:25.447Z,6.26
2019-01-09T02:10:25.440Z,6.20
2019-01-09T02:11:25.428Z,6.16
2019-01-09T02:12:46.423Z,6.16
2019-01-09T02:13:25.515Z,6.20
2019-01-09T02:14:25.521Z,6.22
2019-01-09T02:15:25.383Z,6.08
2019-01-09T02:16:25.371Z,6.11
2019-01-09T02:17:25.365Z,6.16
2019-01-09T02:18:46.357Z,6.17
2019-01-09T02:19:25.340Z,6.20
2019-01-09T02:20:25.330Z,6.08
2019-01-09T02:21:25.323Z,6.09
2019-01-09T02:22:25.309Z,6.16
2019-01-09T02:23:25.296Z,6.16
2019-01-09T02:24:46.292Z,6.19
2019-01-09T02:25:25.273Z,6.01
2019-01-09T02:26:25.261Z,5.99
2019-01-09T02:27:25.256Z,6.08
2019-01-09T02:28:25.240Z,6.09
2019-01-09T02:29:25.248Z,6.09
2019-01-09T02:30:46.219Z,6.16
2019-01-09T02:31:25.206Z,6.12
2019-01-09T02:32:25.197Z,6.01
2019-01-09T02:33:25.190Z,6.01
2019-01-09T02:34:25.172Z,6.01
2019-01-09T02:35:25.156Z,6.02
2019-01-09T02:36:46.151Z,6.01
2019-01-09T02:37:25.139Z,5.94
2019-01-09T02:38:25.125Z,6.02
2019-01-09T02:39:25.126Z,5.87
2019-01-09T02:40:25.102Z,5.97
2019-01-09T02:41:25.092Z,5.93
2019-01-09T02:42:46.078Z,5.99
2019-01-09T02:43:25.068Z,5.99
2019-01-09T02:44:32.081Z,5.98
2019-01-09T02:45:25.053Z,5.90
2019-01-09T02:46:25.035Z,5.86
2019-01-09T02:47:25.024Z,5.79
2019-01-09T02:48:48.454Z,5.90
2019-01-09T02:49:24.998Z,5.82
2019-01-09T02:50:24.986Z,5.79
2019-01-09T02:51:24.976Z,5.86
2019-01-09T02:52:24.967Z,5.86
2019-01-09T02:53:24.954Z,5.79
2019-01-09T02:54:45.941Z,5.73
2019-01-09T02:55:24.931Z,5.76
2019-01-09T02:56:24.919Z,5.79
2019-01-09T02:57:24.907Z,5.73
2019-01-09T02:58:24.897Z,5.82
2019-01-09T02:59:24.886Z,5.73
2019-01-09T03:00:45.878Z,5.82
2019-01-09T03:01:24.859Z,5.84
2019-01-09T03:02:24.847Z,5.82
2019-01-09T03:03:24.899Z,5.84
2019-01-09T03:04:24.826Z,5.89
2019-01-09T03:05:24.816Z,5.89
2019-01-09T03:06:45.807Z,5.79
2019-01-09T03:07:24.795Z,5.90
2019-01-09T03:08:24.779Z,5.90
2019-01-09T03:09:24.839Z,5.91
2019-01-09T03:10:24.760Z,5.97
2019-01-09T03:11:24.742Z,5.94
2019-01-09T03:12:45.745Z,5.97
2019-01-09T03:13:24.726Z,6.04
2019-01-09T03:14:24.712Z,5.93
2019-01-09T03:15:24.696Z,5.94
2019-01-09T03:16:24.689Z,5.99
2019-01-09T03:17:24.676Z,6.07
2019-01-09T03:18:45.669Z,6.08
2019-01-09T03:19:24.653Z,6.11
2019-01-09T03:20:24.649Z,6.07
2019-01-09T03:21:24.626Z,6.19
2019-01-09T03:22:24.615Z,6.30
2019-01-09T03:23:24.608Z,6.31
2019-01-09T03:24:45.600Z,6.20
2019-01-09T03:25:24.582Z,6.33
2019-01-09T03:26:24.570Z,6.20
2019-01-09T03:27:24.557Z,6.26
2019-01-09T03:28:24.548Z,6.19
2019-01-09T03:29:24.532Z,6.11
2019-01-09T03:30:45.631Z,6.01
2019-01-09T03:31:24.518Z,6.14
2019-01-09T03:32:24.499Z,6.04
2019-01-09T03:33:24.488Z,5.98
2019-01-09T03:34:24.475Z,5.90
2019-01-09T03:35:24.461Z,5.99
2019-01-09T03:36:45.459Z,6.04
2019-01-09T03:37:24.444Z,5.90
2019-01-09T03:38:24.430Z,6.02
2019-01-09T03:39:24.415Z,6.04
2019-01-09T03:40:24.407Z,5.90
2019-01-09T03:41:24.394Z,5.86
2019-01-09T03:42:45.389Z,5.97
2019-01-09T03:43:24.372Z,5.97
2019-01-09T03:44:24.378Z,5.91
2019-01-09T03:45:24.349Z,5.97
2019-01-09T03:46:24.337Z,5.89
2019-01-09T03:47:24.331Z,5.86
2019-01-09T03:48:45.319Z,5.87
2019-01-09T03:49:24.314Z,5.84
2019-01-09T03:50:24.292Z,5.79
2019-01-09T03:51:24.283Z,5.94
2019-01-09T03:52:24.267Z,5.93
2019-01-09T03:53:24.260Z,5.91
2019-01-09T03:54:45.332Z,5.97
2019-01-09T03:55:24.235Z,5.80
2019-01-09T03:56:24.223Z,5.73
2019-01-09T03:57:24.214Z,5.54
2019-01-09T03:58:24.199Z,5.47
2019-01-09T03:59:24.186Z,5.32
2019-01-09T04:00:45.188Z,5.38
2019-01-09T04:01:24.160Z,5.25
2019-01-09T04:02:24.149Z,5.14
2019-01-09T04:03:25.060Z,5.14
2019-01-09T04:04:24.126Z,5.05
2019-01-09T04:05:24.117Z,4.99
2019-01-09T04:06:45.110Z,4.90
2019-01-09T04:07:24.089Z,4.90
2019-01-09T04:08:24.082Z,4.68
2019-01-09T04:09:24.073Z,4.71
2019-01-09T04:10:24.058Z,4.55
2019-01-09T04:11:24.042Z,4.28
2019-01-09T04:12:45.039Z,4.22
2019-01-09T04:13:24.021Z,4.08
2019-01-09T04:14:24.008Z,4.08
2019-01-09T04:15:24.001Z,4.01
2019-01-09T04:16:23.984Z,3.98
2019-01-09T04:17:23.973Z,3.84
2019-01-09T04:18:44.971Z,3.74
2019-01-09T04:19:23.943Z,3.84
2019-01-09T04:20:23.932Z,3.70
2019-01-09T04:21:23.917Z,3.60
2019-01-09T04:22:23.914Z,3.58
2019-01-09T04:23:23.898Z,3.63
2019-01-09T04:24:44.888Z,3.58
2019-01-09T04:25:23.874Z,3.56
2019-01-09T04:26:23.855Z,3.56
2019-01-09T04:27:23.841Z,3.56
2019-01-09T04:28:23.839Z,3.60
2019-01-09T04:29:23.822Z,3.53
2019-01-09T04:30:44.814Z,3.53
2019-01-09T04:31:23.794Z,3.47
2019-01-09T04:32:23.786Z,3.41
2019-01-09T04:33:23.770Z,3.53
2019-01-09T04:34:23.757Z,3.51
2019-01-09T04:35:23.751Z,3.58
2019-01-09T04:36:51.372Z,3.51
2019-01-09T04:37:23.724Z,3.45
2019-01-09T04:38:23.712Z,3.45
2019-01-09T04:39:23.700Z,3.53
2019-01-09T04:40:23.695Z,3.53
2019-01-09T04:41:23.677Z,3.45
2019-01-09T04:42:44.669Z,3.41
2019-01-09T04:43:23.662Z,3.45
2019-01-09T04:44:23.642Z,3.50
2019-01-09T04:45:23.630Z,3.47
2019-01-09T04:46:23.619Z,3.41
2019-01-09T04:47:23.644Z,3.40
2019-01-09T04:48:44.597Z,3.58
2019-01-09T04:49:23.584Z,3.53
2019-01-09T04:50:23.575Z,3.45
2019-01-09T04:51:23.560Z,3.44
2019-01-09T04:52:23.547Z,3.53
2019-01-09T04:53:23.537Z,3.41
2019-01-09T04:54:44.526Z,3.42
2019-01-09T04:55:23.516Z,3.36
2019-01-09T04:56:23.513Z,3.40
2019-01-09T04:57:23.488Z,3.37
2019-01-09T04:58:23.473Z,3.41
2019-01-09T04:59:23.515Z,3.42
2019-01-09T05:00:44.457Z,3.37
2019-01-09T05:01:23.440Z,3.44
2019-01-09T05:02:23.431Z,3.40
2019-01-09T05:03:23.418Z,3.37
2019-01-09T05:04:23.409Z,3.41
2019-01-09T05:05:23.400Z,3.34
2019-01-09T05:06:44.391Z,3.40
2019-01-09T05:07:23.373Z,3.41
2019-01-09T05:08:23.362Z,3.45
2019-01-09T05:09:23.351Z,3.47
2019-01-09T05:10:23.338Z,3.42
2019-01-09T05:11:23.321Z,3.41
2019-01-09T05:12:44.315Z,3.37
2019-01-09T05:13:23.299Z,3.45
2019-01-09T05:14:23.293Z,3.44
2019-01-09T05:15:23.279Z,3.50
2019-01-09T05:16:23.274Z,3.59
2019-01-09T05:17:23.256Z,3.63
2019-01-09T05:18:44.248Z,3.70
2019-01-09T05:19:23.237Z,3.78
2019-01-09T05:20:23.222Z,3.74
2019-01-09T05:21:23.211Z,3.83
2019-01-09T05:22:23.198Z,3.77
2019-01-09T05:23:23.188Z,3.91
2019-01-09T05:24:45.528Z,3.83
2019-01-09T05:25:23.166Z,3.81
2019-01-09T05:26:23.154Z,3.81
2019-01-09T05:27:23.140Z,3.77
2019-01-09T05:28:23.130Z,3.84
2019-01-09T05:29:23.117Z,3.74
2019-01-09T05:30:44.108Z,3.81
2019-01-09T05:31:23.096Z,3.94
2019-01-09T05:32:23.082Z,4.10
2019-01-09T05:33:23.068Z,4.14
2019-01-09T05:34:23.056Z,4.14
2019-01-09T05:35:23.046Z,4.17
2019-01-09T05:36:44.040Z,4.19
2019-01-09T05:37:23.038Z,4.16
2019-01-09T05:38:23.012Z,4.23
2019-01-09T05:39:22.998Z,4.37
2019-01-09T05:40:22.984Z,4.41
2019-01-09T05:41:22.974Z,4.48
2019-01-09T05:42:43.970Z,4.48
2019-01-09T05:43:22.953Z,4.45
2019-01-09T05:44:22.940Z,4.40
2019-01-09T05:45:22.930Z,4.41
2019-01-09T05:46:22.915Z,4.41
2019-01-09T05:47:22.904Z,4.45
2019-01-09T05:48:43.894Z,4.40
2019-01-09T05:49:22.883Z,4.41
2019-01-09T05:50:22.868Z,4.41
2019-01-09T05:51:22.857Z,4.42
2019-01-09T05:52:22.841Z,4.42
2019-01-09T05:53:22.832Z,4.45
2019-01-09T05:54:43.824Z,4.45
2019-01-09T05:55:22.811Z,4.45
2019-01-09T05:56:22.902Z,4.55
2019-01-09T05:57:22.785Z,4.49
2019-01-09T05:58:22.774Z,4.53
2019-01-09T05:59:22.756Z,4.53
2019-01-09T06:00:43.754Z,4.53
2019-01-09T06:01:22.738Z,4.55
2019-01-09T06:02:22.725Z,4.58
2019-01-09T06:03:22.711Z,4.56
2019-01-09T06:04:22.698Z,4.63
2019-01-09T06:05:22.686Z,4.55
2019-01-09T06:06:43.678Z,4.63
2019-01-09T06:07:22.664Z,4.56
2019-01-09T06:08:22.655Z,4.66
2019-01-09T06:09:22.642Z,4.63
2019-01-09T06:10:22.630Z,4.67
2019-01-09T06:11:22.613Z,4.74
2019-01-09T06:12:43.607Z,4.71
2019-01-09T06:13:22.597Z,4.73
2019-01-09T06:14:22.577Z,4.68
2019-01-09T06:15:22.568Z,4.73
2019-01-09T06:16:22.555Z,4.73
2019-01-09T06:17:22.546Z,4.58
2019-01-09T06:18:43.535Z,4.58
2019-01-09T06:19:22.516Z,4.49
2019-01-09T06:20:22.514Z,4.41
2019-01-09T06:21:22.497Z,4.40
2019-01-09T06:22:22.561Z,4.34
2019-01-09T06:23:22.470Z,4.38
2019-01-09T06:24:43.465Z,4.26
2019-01-09T06:25:22.442Z,4.26
2019-01-09T06:26:22.431Z,4.26
2019-01-09T06:27:22.417Z,4.20
2019-01-09T06:28:22.402Z,4.31
2019-01-09T06:29:22.398Z,4.12
2019-01-09T06:30:43.388Z,4.20
2019-01-09T06:31:22.369Z,4.20
2019-01-09T06:32:22.353Z,4.26
2019-01-09T06:33:22.345Z,4.37
2019-01-09T06:34:22.332Z,4.40
2019-01-09T06:35:22.322Z,4.50
2019-01-09T06:36:43.316Z,4.56
2019-01-09T06:37:27.431Z,4.53
2019-01-09T06:38:22.279Z,4.52
2019-01-09T06:39:22.268Z,4.59
2019-01-09T06:40:22.258Z,4.56
2019-01-09T06:41:22.251Z,4.50
2019-01-09T06:42:43.238Z,4.45
2019-01-09T06:43:22.221Z,4.40
2019-01-09T06:44:22.828Z,4.37
2019-01-09T06:45:22.194Z,4.45
2019-01-09T06:46:22.180Z,4.45
2019-01-09T06:47:22.171Z,4.35
2019-01-09T06:48:43.163Z,4.32
2019-01-09T06:49:22.147Z,4.40
2019-01-09T06:50:22.138Z,4.40
2019-01-09T06:51:22.119Z,4.38
2019-01-09T06:52:22.107Z,4.35
2019-01-09T06:53:22.102Z,4.37
2019-01-09T06:54:43.108Z,4.45
2019-01-09T06:55:22.110Z,4.45
2019-01-09T06:56:22.062Z,4.53
2019-01-09T06:57:22.050Z,4.59
2019-01-09T06:58:22.034Z,4.44
2019-01-09T06:59:22.026Z,4.45
2019-01-09T07:00:43.017Z,4.45
2019-01-09T07:01:22.002Z,4.49
2019-01-09T07:02:21.988Z,4.44
2019-01-09T07:03:21.980Z,4.52
2019-01-09T07:04:21.961Z,4.56
2019-01-09T07:05:21.956Z,4.55
2019-01-09T07:06:42.943Z,4.44
2019-01-09T07:07:21.935Z,4.38
2019-01-09T07:08:21.916Z,4.41
2019-01-09T07:09:21.906Z,4.30
2019-01-09T07:10:21.893Z,4.44
2019-01-09T07:11:21.878Z,4.40
2019-01-09T07:12:42.868Z,4.44
2019-01-09T07:13:21.856Z,4.44
2019-01-09T07:14:21.839Z,4.50
2019-01-09T07:15:21.825Z,4.45
2019-01-09T07:16:21.818Z,4.40
2019-01-09T07:17:21.808Z,4.35
2019-01-09T07:18:42.798Z,4.24
2019-01-09T07:19:21.780Z,4.37
2019-01-09T07:20:21.771Z,4.31
2019-01-09T07:21:21.758Z,4.28
2019-01-09T07:22:21.746Z,4.28
2019-01-09T07:23:21.739Z,4.26
2019-01-09T07:24:43.617Z,4.28
2019-01-09T07:25:21.707Z,4.40
2019-01-09T07:26:21.703Z,4.42
2019-01-09T07:27:21.690Z,4.45
2019-01-09T07:28:21.675Z,4.37
2019-01-09T07:29:21.658Z,4.35
2019-01-09T07:30:42.655Z,4.40
2019-01-09T07:31:21.638Z,4.32
2019-01-09T07:32:21.622Z,4.30
2019-01-09T07:33:21.621Z,4.30
2019-01-09T07:34:21.601Z,4.24
2019-01-09T07:35:21.604Z,4.28
2019-01-09T07:36:42.581Z,4.23
2019-01-09T07:37:21.564Z,4.31
2019-01-09T07:38:21.556Z,4.24
2019-01-09T07:39:21.540Z,4.28
2019-01-09T07:40:21.533Z,4.26
2019-01-09T07:41:21.518Z,4.37
2019-01-09T07:42:42.514Z,4.40
2019-01-09T07:43:21.493Z,4.40
2019-01-09T07:44:21.481Z,4.52
2019-01-09T07:45:21.472Z,4.44
2019-01-09T07:46:21.453Z,4.42
2019-01-09T07:47:21.454Z,4.41
2019-01-09T07:48:42.442Z,4.38
2019-01-09T07:49:21.422Z,4.45
2019-01-09T07:50:21.417Z,4.52
2019-01-09T07:51:21.397Z,4.41
2019-01-09T07:52:21.390Z,4.44
2019-01-09T07:53:21.378Z,4.44
2019-01-09T07:54:42.370Z,4.45
2019-01-09T07:55:21.355Z,4.40
2019-01-09T07:56:21.338Z,4.44
2019-01-09T07:57:21.330Z,4.49
2019-01-09T07:58:21.317Z,4.44
2019-01-09T07:59:21.308Z,4.50
2019-01-09T08:00:42.300Z,4.58
2019-01-09T08:01:21.282Z,4.50
2019-01-09T08:02:21.274Z,4.55
2019-01-09T08:03:21.267Z,4.53
2019-01-09T08:04:21.245Z,4.41
2019-01-09T08:05:21.233Z,4.49
2019-01-09T08:06:42.223Z,4.45
2019-01-09T08:07:21.213Z,4.56
2019-01-09T08:08:21.242Z,4.53
2019-01-09T08:09:21.189Z,4.50
2019-01-09T08:10:21.178Z,4.45
2019-01-09T08:11:21.161Z,4.49
2019-01-09T08:12:42.162Z,4.55
2019-01-09T08:13:21.151Z,4.49
2019-01-09T08:14:21.126Z,4.55
2019-01-09T08:15:21.120Z,4.53
2019-01-09T08:16:21.141Z,4.53
2019-01-09T08:17:21.096Z,4.49
2019-01-09T08:18:42.082Z,4.52
2019-01-09T08:19:21.069Z,4.55
2019-01-09T08:20:21.062Z,4.56
2019-01-09T08:21:21.044Z,4.53
2019-01-09T08:22:21.037Z,4.55
2019-01-09T08:23:21.025Z,4.56
2019-01-09T08:24:42.021Z,4.55
2019-01-09T08:25:20.998Z,4.56
2019-01-09T08:26:20.989Z,4.55
2019-01-09T08:27:20.980Z,4.56
2019-01-09T08:28:20.964Z,4.58
2019-01-09T08:29:20.960Z,4.55
2019-01-09T08:30:41.946Z,4.56
2019-01-09T08:31:20.952Z,4.59
2019-01-09T08:32:20.915Z,4.55
2019-01-09T08:33:20.913Z,4.56
2019-01-09T08:34:20.896Z,4.59
2019-01-09T08:35:20.883Z,4.56
2019-01-09T08:36:41.876Z,4.63
2019-01-09T08:37:20.863Z,4.58
2019-01-09T08:38:20.844Z,4.59
2019-01-09T08:39:22.693Z,4.58
2019-01-09T08:40:20.826Z,4.63
2019-01-09T08:41:20.814Z,4.67
2019-01-09T08:42:41.805Z,4.63
2019-01-09T08:43:20.793Z,4.68
2019-01-09T08:44:20.778Z,4.59
2019-01-09T08:45:20.766Z,4.60
2019-01-09T08:46:20.757Z,4.71
2019-01-09T08:47:20.744Z,4.68
2019-01-09T08:48:41.736Z,4.70
2019-01-09T08:49:20.717Z,4.75
2019-01-09T08:50:20.711Z,4.70
2019-01-09T08:51:20.695Z,4.74
2019-01-09T08:52:20.687Z,4.68
2019-01-09T08:53:20.672Z,4.74
2019-01-09T08:54:41.664Z,4.74
2019-01-09T08:55:20.652Z,4.74
2019-01-09T08:56:20.716Z,4.68
2019-01-09T08:57:20.622Z,4.74
2019-01-09T08:58:20.614Z,4.71
2019-01-09T08:59:20.600Z,4.75
2019-01-09T09:00:41.597Z,4.67
2019-01-09T09:01:20.576Z,4.80
2019-01-09T09:02:20.567Z,4.75
2019-01-09T09:03:20.562Z,4.77
2019-01-09T09:04:20.545Z,4.78
2019-01-09T09:05:20.529Z,4.84
2019-01-09T09:06:41.527Z,4.86
2019-01-09T09:07:20.511Z,4.90
2019-01-09T09:08:20.497Z,4.86
2019-01-09T09:09:20.483Z,4.94
2019-01-09T09:10:20.476Z,5.02
2019-01-09T09:11:20.462Z,4.99
2019-01-09T09:12:41.455Z,4.99
2019-01-09T09:13:20.438Z,5.08
2019-01-09T09:14:20.424Z,5.10
2019-01-09T09:15:20.416Z,5.07
2019-01-09T09:16:20.403Z,5.17
2019-01-09T09:17:20.394Z,5.21
2019-01-09T09:18:41.381Z,5.17
2019-01-09T09:19:20.368Z,5.17
2019-01-09T09:20:20.358Z,5.15
2019-01-09T09:21:20.344Z,5.21
2019-01-09T09:22:20.334Z,5.32
2019-01-09T09:23:20.322Z,5.35
2019-01-09T09:24:41.320Z,5.48
2019-01-09T09:25:20.303Z,5.39
2019-01-09T09:26:20.287Z,5.43
2019-01-09T09:27:20.281Z,5.56
2019-01-09T09:28:20.270Z,5.53
2019-01-09T09:29:20.251Z,5.62
2019-01-09T09:30:41.249Z,5.66
2019-01-09T09:31:20.233Z,5.53
2019-01-09T09:32:20.218Z,5.65
2019-01-09T09:33:20.214Z,5.53
2019-01-09T09:34:20.203Z,5.61
2019-01-09T09:35:20.186Z,5.68
2019-01-09T09:36:41.178Z,5.64
2019-01-09T09:37:20.160Z,5.53
2019-01-09T09:38:20.703Z,5.61
2019-01-09T09:39:20.141Z,5.61
2019-01-09T09:40:20.129Z,5.66
2019-01-09T09:41:20.114Z,5.54
2019-01-09T09:42:41.110Z,5.66
2019-01-09T09:43:20.090Z,5.65
2019-01-09T09:44:20.082Z,5.65
2019-01-09T09:45:20.073Z,5.65
2019-01-09T09:46:20.062Z,5.65
2019-01-09T09:47:20.050Z,5.59
2019-01-09T09:48:41.044Z,5.66
2019-01-09T09:49:20.022Z,5.64
2019-01-09T09:50:20.010Z,5.65
2019-01-09T09:51:20.000Z,5.66
2019-01-09T09:52:19.992Z,5.66
2019-01-09T09:53:19.981Z,5.71
2019-01-09T09:54:40.976Z,5.71
2019-01-09T09:55:19.955Z,5.66
2019-01-09T09:56:19.946Z,5.65
2019-01-09T09:57:19.933Z,5.73
2019-01-09T09:58:19.921Z,5.65
2019-01-09T09:59:19.910Z,5.68
2019-01-09T10:00:40.909Z,5.65
2019-01-09T10:01:19.892Z,5.65
2019-01-09T10:02:19.878Z,5.54
2019-01-09T10:03:19.868Z,5.68
2019-01-09T10:04:19.856Z,5.51
2019-01-09T10:05:19.848Z,5.47
2019-01-09T10:06:40.839Z,5.56
2019-01-09T10:07:19.824Z,5.56
2019-01-09T10:08:19.811Z,5.53
2019-01-09T10:09:19.797Z,5.41
2019-01-09T10:10:19.795Z,5.44
2019-01-09T10:11:19.774Z,5.46
2019-01-09T10:12:40.771Z,5.48
2019-01-09T10:13:19.754Z,5.41
2019-01-09T10:14:19.743Z,5.48
2019-01-09T10:15:19.732Z,5.44
2019-01-09T10:16:19.723Z,5.41
2019-01-09T10:17:19.708Z,5.47
2019-01-09T10:18:40.704Z,5.54
2019-01-09T10:19:19.686Z,5.53
2019-01-09T10:20:19.676Z,5.59
2019-01-09T10:21:19.665Z,5.66
2019-01-09T10:22:19.653Z,5.64
2019-01-09T10:23:19.642Z,5.64
2019-01-09T10:24:40.632Z,5.65
2019-01-09T10:25:19.620Z,5.57
2019-01-09T10:26:19.606Z,5.61
2019-01-09T10:27:19.596Z,5.64
2019-01-09T10:28:19.586Z,5.72
2019-01-09T10:29:19.575Z,5.69
2019-01-09T10:30:40.568Z,5.71
2019-01-09T10:31:19.552Z,5.68
2019-01-09T10:32:19.548Z,5.73
2019-01-09T10:33:19.530Z,5.73
2019-01-09T10:34:19.516Z,5.76
2019-01-09T10:35:19.512Z,5.87
2019-01-09T10:36:40.499Z,5.79
2019-01-09T10:37:19.486Z,5.97
2019-01-09T10:38:19.473Z,5.93
2019-01-09T10:39:19.460Z,5.93
2019-01-09T10:40:19.451Z,6.04
2019-01-09T10:41:19.441Z,6.02
2019-01-09T10:42:40.436Z,6.04
2019-01-09T10:43:19.417Z,5.97
2019-01-09T10:44:19.413Z,5.98
2019-01-09T10:45:19.402Z,6.07
2019-01-09T10:46:19.384Z,6.02
2019-01-09T10:47:19.373Z,6.02
2019-01-09T10:48:40.371Z,6.02
2019-01-09T10:49:19.356Z,6.02
2019-01-09T10:50:19.345Z,5.97
2019-01-09T10:51:19.334Z,6.16
2019-01-09T10:52:19.322Z,6.20
2019-01-09T10:53:19.315Z,6.24
2019-01-09T10:54:40.381Z,6.08
2019-01-09T10:55:19.290Z,6.20
2019-01-09T10:56:19.279Z,6.20
2019-01-09T10:57:19.270Z,6.20
2019-01-09T10:58:19.259Z,6.27
2019-01-09T10:59:19.248Z,6.24
2019-01-09T11:00:40.241Z,6.35
2019-01-09T11:01:19.223Z,6.33
2019-01-09T11:02:19.270Z,6.26
2019-01-09T11:03:19.210Z,6.28
2019-01-09T11:04:19.196Z,6.27
2019-01-09T11:05:19.188Z,6.31
2019-01-09T11:06:40.182Z,6.22
2019-01-09T11:07:19.159Z,6.26
2019-01-09T11:08:19.154Z,6.31
2019-01-09T11:09:19.148Z,6.30
2019-01-09T11:10:19.127Z,6.28
2019-01-09T11:11:19.121Z,6.33
2019-01-09T11:12:40.115Z,6.38
2019-01-09T11:13:19.100Z,6.33
2019-01-09T11:14:19.088Z,6.42
2019-01-09T11:15:19.080Z,6.31
2019-01-09T11:16:19.073Z,6.36
2019-01-09T11:17:19.113Z,6.30
2019-01-09T11:18:40.050Z,6.24
2019-01-09T11:19:19.039Z,6.36
2019-01-09T11:20:19.029Z,6.33
2019-01-09T11:21:19.018Z,6.30
2019-01-09T11:22:19.008Z,6.19
2019-01-09T11:23:18.997Z,6.26
2019-01-09T11:24:39.994Z,6.19
2019-01-09T11:25:18.978Z,6.14
2019-01-09T11:26:18.965Z,6.17
2019-01-09T11:27:18.954Z,6.20
2019-01-09T11:28:18.946Z,6.19
2019-01-09T11:29:18.933Z,6.16
2019-01-09T11:30:39.930Z,6.05
2019-01-09T11:31:18.912Z,6.19
2019-01-09T11:32:18.904Z,6.26
2019-01-09T11:33:18.892Z,6.19
2019-01-09T11:34:20.366Z,6.02
2019-01-09T11:35:18.875Z,6.12
2019-01-09T11:36:39.863Z,6.05
2019-01-09T11:37:18.848Z,6.08
2019-01-09T11:38:18.834Z,6.08
2019-01-09T11:39:18.826Z,6.07
2019-01-09T11:40:18.933Z,6.08
2019-01-09T11:41:18.807Z,6.01
2019-01-09T11:42:39.797Z,5.93
2019-01-09T11:43:18.796Z,6.01
2019-01-09T11:44:18.769Z,6.08
2019-01-09T11:45:18.761Z,6.09
2019-01-09T11:46:18.752Z,6.04
2019-01-09T11:47:18.736Z,6.08
2019-01-09T11:48:39.737Z,6.01
2019-01-09T11:49:18.715Z,6.01
2019-01-09T11:50:18.705Z,6.02
2019-01-09T11:51:18.694Z,6.08
2019-01-09T11:52:18.687Z,6.17
2019-01-09T11:53:18.676Z,6.20
2019-01-09T11:54:41.586Z,6.22
2019-01-09T11:55:18.650Z,6.26
2019-01-09T11:56:18.640Z,6.39
2019-01-09T11:57:18.631Z,6.31
2019-01-09T11:58:18.618Z,6.30
2019-01-09T11:59:18.606Z,6.19
2019-01-09T12:00:39.603Z,5.99
2019-01-09T12:01:18.586Z,5.99
2019-01-09T12:02:22.171Z,6.04
2019-01-09T12:03:18.563Z,6.20
2019-01-09T12:04:18.549Z,6.22
2019-01-09T12:05:18.543Z,6.36
2019-01-09T12:06:39.543Z,6.17
2019-01-09T12:07:18.520Z,6.01
2019-01-09T12:08:18.509Z,6.09
2019-01-09T12:09:18.496Z,6.05
2019-01-09T12:10:18.485Z,6.04
2019-01-09T12:11:18.475Z,6.05
2019-01-09T12:12:39.469Z,6.16
2019-01-09T12:13:18.519Z,6.02
2019-01-09T12:14:18.442Z,5.87
2019-01-09T12:15:18.431Z,5.97
2019-01-09T12:16:18.419Z,5.97
2019-01-09T12:17:18.407Z,5.99
2019-01-09T12:18:39.396Z,5.93
2019-01-09T12:19:18.385Z,5.87
2019-01-09T12:20:18.375Z,5.86
2019-01-09T12:21:18.363Z,5.83
2019-01-09T12:22:18.351Z,5.75
2019-01-09T12:23:18.337Z,5.76
2019-01-09T12:24:39.372Z,5.72
2019-01-09T12:25:18.319Z,5.68
2019-01-09T12:26:18.302Z,5.69
2019-01-09T12:27:18.289Z,5.68
2019-01-09T12:28:18.285Z,5.83
2019-01-09T12:29:18.273Z,5.69
2019-01-09T12:30:39.264Z,5.64
2019-01-09T12:31:18.250Z,5.75
2019-01-09T12:32:18.241Z,5.86
2019-01-09T12:33:18.229Z,5.86
2019-01-09T12:34:19.264Z,5.82
2019-01-09T12:35:18.205Z,5.93
2019-01-09T12:36:39.200Z,5.91
2019-01-09T12:37:18.180Z,5.93
2019-01-09T12:38:18.170Z,5.99
2019-01-09T12:39:18.171Z,5.86
2019-01-09T12:40:18.153Z,5.98
2019-01-09T12:41:18.144Z,5.98
2019-01-09T12:42:39.133Z,5.98
2019-01-09T12:43:18.119Z,5.97
2019-01-09T12:44:18.103Z,5.90
2019-01-09T12:45:18.099Z,5.98
2019-01-09T12:46:18.082Z,5.97
2019-01-09T12:47:18.071Z,5.99
2019-01-09T12:48:39.066Z,6.05
2019-01-09T12:49:18.051Z,5.89
2019-01-09T12:50:18.036Z,5.98
2019-01-09T12:51:18.026Z,5.98
2019-01-09T12:52:18.016Z,5.97
2019-01-09T12:53:18.004Z,5.93
2019-01-09T12:54:38.997Z,5.89
2019-01-09T12:55:17.980Z,5.91
2019-01-09T12:56:17.971Z,5.97
2019-01-09T12:57:17.960Z,5.87
2019-01-09T12:58:17.948Z,5.99
2019-01-09T12:59:21.898Z,5.94
2019-01-09T13:00:38.937Z,6.01
2019-01-09T13:01:17.914Z,5.98
2019-01-09T13:02:17.906Z,5.93
2019-01-09T13:03:17.893Z,5.97
2019-01-09T13:04:17.880Z,6.01
2019-01-09T13:05:17.876Z,6.05
2019-01-09T13:06:38.869Z,5.97
2019-01-09T13:07:17.854Z,6.02
2019-01-09T13:08:17.840Z,6.01
2019-01-09T13:09:22.221Z,6.02
2019-01-09T13:10:17.816Z,6.01
2019-01-09T13:11:17.802Z,6.08
2019-01-09T13:12:38.822Z,5.97
2019-01-09T13:13:17.780Z,6.02
2019-01-09T13:14:17.770Z,5.98
2019-01-09T13:15:17.765Z,5.98
2019-01-09T13:16:17.751Z,5.87
2019-01-09T13:17:17.741Z,5.93
2019-01-09T13:18:38.735Z,5.99